createdAt,value
2022-10-29T00:01:06.370Z,97959.97
2022-10-29T00:03:09.703Z,97959.25
2022-10-29T00:05:12.268Z,97956.91
2022-10-29T00:07:16.217Z,97964.69
2022-10-29T00:09:18.757Z,97962.88
2022-10-29T00:11:22.869Z,97965.41
2022-10-29T00:13:25.484Z,97960.97
2022-10-29T00:15:28.130Z,97959.97
2022-10-29T00:17:30.754Z,97967.75
2022-10-29T00:19:33.347Z,97961.47
2022-10-29T00:21:35.971Z,97961.31
2022-10-29T00:23:39.950Z,97960.09
2022-10-29T00:25:42.563Z,97956.16
2022-10-29T00:27:45.187Z,97956.41
2022-10-29T00:29:47.752Z,97961.88
2022-10-29T00:31:51.123Z,97957.72
2022-10-29T00:33:54.910Z,97952.63
2022-10-29T00:35:58.559Z,97955.44
2022-10-29T00:38:01.130Z,97950.38
2022-10-29T00:40:05.678Z,97953.78
2022-10-29T00:42:15.149Z,97948.69
2022-10-29T00:44:28.688Z,97950.31
2022-10-29T00:46:34.999Z,97954.16
2022-10-29T00:48:44.531Z,97956.09
2022-10-29T00:50:48.573Z,97957.00
2022-10-29T00:52:53.179Z,97956.94
2022-10-29T00:54:57.182Z,97950.00
2022-10-29T00:57:06.083Z,97958.72
2022-10-29T00:59:10.239Z,97964.09
2022-10-29T01:01:12.996Z,97960.63
2022-10-29T01:03:15.638Z,97958.84
2022-10-29T01:05:22.430Z,97962.34
2022-10-29T01:07:25.527Z,97965.88
2022-10-29T01:09:28.095Z,97964.28
2022-10-29T01:11:42.932Z,97959.22
2022-10-29T01:14:01.054Z,97959.22
2022-10-29T01:16:15.495Z,97952.94
2022-10-29T01:18:22.185Z,97947.97
2022-10-29T01:20:55.898Z,97947.09
2022-10-29T01:23:12.136Z,97937.59
2022-10-29T01:25:43.914Z,97945.59
2022-10-29T01:27:56.656Z,97945.59
2022-10-29T01:30:14.704Z,97946.50
2022-10-29T01:32:24.639Z,97951.63
2022-10-29T01:34:31.773Z,97955.03
2022-10-29T01:36:41.606Z,97935.69
2022-10-29T01:38:52.724Z,97951.25
2022-10-29T01:41:02.082Z,97940.69
2022-10-29T01:43:10.271Z,97939.69
2022-10-29T01:45:20.130Z,97934.41
2022-10-29T01:47:27.610Z,97926.41
2022-10-29T01:49:35.813Z,97935.22
2022-10-29T01:51:40.369Z,97929.16
2022-10-29T01:53:42.924Z,97934.44
2022-10-29T01:55:45.521Z,97931.06
2022-10-29T01:57:48.147Z,97932.88
2022-10-29T01:59:56.001Z,97929.41
2022-10-29T02:02:09.078Z,97929.41
2022-10-29T02:04:33.564Z,97920.59
2022-10-29T02:06:44.017Z,97923.19
2022-10-29T02:08:56.712Z,97917.00
2022-10-29T02:11:05.113Z,97919.63
2022-10-29T02:13:11.063Z,97916.16
2022-10-29T02:15:17.802Z,97920.56
2022-10-29T02:17:20.529Z,97917.09
2022-10-29T02:19:24.507Z,97913.59
2022-10-29T02:21:27.110Z,97906.66
2022-10-29T02:23:29.780Z,97899.75
2022-10-29T02:25:32.536Z,97904.03
2022-10-29T02:27:35.360Z,97900.47
2022-10-29T02:29:37.956Z,97893.47
2022-10-29T02:31:40.523Z,97900.34
2022-10-29T02:33:43.114Z,97901.13
2022-10-29T02:35:47.017Z,97898.38
2022-10-29T02:37:49.718Z,97893.13
2022-10-29T02:39:52.276Z,97894.84
2022-10-29T02:41:54.876Z,97894.91
2022-10-29T02:43:57.462Z,97892.28
2022-10-29T02:46:14.337Z,97893.19
2022-10-29T02:48:16.938Z,97887.84
2022-10-29T02:50:19.544Z,97894.69
2022-10-29T02:52:24.347Z,97892.88
2022-10-29T02:54:26.926Z,97889.38
2022-10-29T02:56:29.506Z,97884.13
2022-10-29T02:58:32.249Z,97877.13
2022-10-29T03:00:34.859Z,97883.16
2022-10-29T03:02:37.501Z,97882.22
2022-10-29T03:04:41.274Z,97882.38
2022-10-29T03:06:44.010Z,97890.38
2022-10-29T03:08:48.600Z,97888.72
2022-10-29T03:10:51.234Z,97883.56
2022-10-29T03:12:54.043Z,97881.97
2022-10-29T03:14:56.812Z,97880.28
2022-10-29T03:16:59.420Z,97875.97
2022-10-29T03:19:02.121Z,97869.72
2022-10-29T03:21:04.895Z,97873.13
2022-10-29T03:23:07.477Z,97872.28
2022-10-29T03:25:11.658Z,97869.00
2022-10-29T03:27:14.225Z,97869.06
2022-10-29T03:29:16.762Z,97877.81
2022-10-29T03:31:19.362Z,97879.44
2022-10-29T03:33:23.289Z,97875.97
2022-10-29T03:35:26.003Z,97875.81
2022-10-29T03:37:28.597Z,97876.47
2022-10-29T03:39:31.147Z,97877.34
2022-10-29T03:41:35.069Z,97874.00
2022-10-29T03:43:37.770Z,97883.56
2022-10-29T03:45:40.369Z,97878.38
2022-10-29T03:47:42.963Z,97881.06
2022-10-29T03:49:45.523Z,97880.16
2022-10-29T03:51:48.176Z,97877.53
2022-10-29T03:53:50.796Z,97877.66
2022-10-29T03:55:53.930Z,97876.72
2022-10-29T03:57:58.345Z,97877.66
2022-10-29T04:00:01.910Z,97881.06
2022-10-29T04:02:04.579Z,97884.66
2022-10-29T04:04:07.272Z,97881.97
2022-10-29T04:06:12.298Z,97879.63
2022-10-29T04:08:14.926Z,97868.22
2022-10-29T04:10:17.599Z,97870.84
2022-10-29T04:12:20.310Z,97877.09
2022-10-29T04:14:24.215Z,97877.97
2022-10-29T04:16:26.826Z,97879.78
2022-10-29T04:18:29.456Z,97882.25
2022-10-29T04:21:05.631Z,97881.47
2022-10-29T04:30:03.743Z,97877.81
2022-10-29T04:32:06.400Z,97877.00
2022-10-29T04:34:09.004Z,97869.94
2022-10-29T04:36:12.038Z,97878.59
2022-10-29T04:38:14.688Z,97875.03
2022-10-29T04:40:18.050Z,97873.53
2022-10-29T04:42:20.625Z,97873.75
2022-10-29T04:44:23.206Z,97873.88
2022-10-29T04:46:27.129Z,97866.03
2022-10-29T04:48:30.420Z,97874.78
2022-10-29T04:50:34.212Z,97866.91
2022-10-29T04:52:36.797Z,97859.84
2022-10-29T04:54:39.416Z,97858.13
2022-10-29T04:56:42.276Z,97852.91
2022-10-29T04:58:47.752Z,97866.84
2022-10-29T05:00:50.384Z,97864.28
2022-10-29T05:02:55.263Z,97860.88
2022-10-29T05:04:58.241Z,97866.13
2022-10-29T05:07:00.817Z,97867.91
2022-10-29T05:09:04.188Z,97867.03
2022-10-29T05:11:07.109Z,97857.47
2022-10-29T05:13:14.107Z,97857.41
2022-10-29T05:15:16.952Z,97854.78
2022-10-29T05:17:19.527Z,97853.94
2022-10-29T05:19:23.564Z,97860.94
2022-10-29T05:21:26.163Z,97852.22
2022-10-29T05:23:28.744Z,97862.78
2022-10-29T05:25:32.620Z,97856.81
2022-10-29T05:27:35.204Z,97863.94
2022-10-29T05:29:37.864Z,97860.56
2022-10-29T05:31:40.427Z,97856.22
2022-10-29T05:33:43.011Z,97854.47
2022-10-29T05:35:47.067Z,97846.91
2022-10-29T05:37:52.492Z,97852.28
2022-10-29T05:39:55.211Z,97864.66
2022-10-29T05:41:57.811Z,97848.28
2022-10-29T05:44:00.623Z,97854.47
2022-10-29T05:46:04.259Z,97858.91
2022-10-29T05:48:07.457Z,97862.69
2022-10-29T05:50:11.439Z,97871.53
2022-10-29T05:52:15.399Z,97872.31
2022-10-29T05:54:17.974Z,97874.41
2022-10-29T05:56:20.570Z,97868.16
2022-10-29T05:58:23.149Z,97872.88
2022-10-29T06:00:26.820Z,97871.28
2022-10-29T06:02:29.450Z,97872.31
2022-10-29T06:04:32.108Z,97877.63
2022-10-29T06:06:35.005Z,97881.19
2022-10-29T06:08:38.971Z,97881.25
2022-10-29T06:10:41.579Z,97875.16
2022-10-29T06:12:44.187Z,97869.97
2022-10-29T06:14:46.750Z,97867.56
2022-10-29T06:16:49.515Z,97866.63
2022-10-29T06:18:52.077Z,97871.00
2022-10-29T06:20:54.684Z,97876.25
2022-10-29T06:22:58.739Z,97887.66
2022-10-29T06:25:03.092Z,97882.41
2022-10-29T06:27:05.665Z,97889.53
2022-10-29T06:29:08.255Z,97887.91
2022-10-29T06:31:10.832Z,97881.00
2022-10-29T06:33:13.419Z,97877.47
2022-10-29T06:35:16.065Z,97877.47
2022-10-29T06:37:18.655Z,97885.28
2022-10-29T06:39:21.251Z,97878.25
2022-10-29T06:41:27.153Z,97882.66
2022-10-29T06:43:29.735Z,97889.59
2022-10-29T06:45:33.266Z,97881.88
2022-10-29T06:47:39.883Z,97884.50
2022-10-29T06:49:42.467Z,97880.94
2022-10-29T06:51:45.020Z,97883.63
2022-10-29T06:53:47.570Z,97882.75
2022-10-29T06:55:50.149Z,97879.25
2022-10-29T06:58:00.064Z,97880.81
2022-10-29T07:00:07.346Z,97876.38
2022-10-29T07:02:13.642Z,97887.53
2022-10-29T07:04:18.605Z,97888.31
2022-10-29T07:06:21.210Z,97888.19
2022-10-29T07:08:24.344Z,97887.28
2022-10-29T07:10:28.748Z,97884.63
2022-10-29T07:12:31.330Z,97892.41
2022-10-29T07:14:35.255Z,97884.53
2022-10-29T07:16:38.210Z,97883.63
2022-10-29T07:18:40.805Z,97888.78
2022-10-29T07:20:45.524Z,97889.56
2022-10-29T07:22:48.631Z,97890.41
2022-10-29T07:24:51.795Z,97889.47
2022-10-29T07:26:55.702Z,97888.53
2022-10-29T07:28:58.553Z,97886.56
2022-10-29T07:31:03.157Z,97893.41
2022-10-29T07:33:05.876Z,97888.91
2022-10-29T07:35:11.135Z,97888.69
2022-10-29T07:37:13.667Z,97887.59
2022-10-29T07:39:16.255Z,97892.72
2022-10-29T07:41:18.896Z,97888.13
2022-10-29T07:43:23.488Z,97883.50
2022-10-29T07:45:26.299Z,97888.53
2022-10-29T07:47:30.237Z,97892.69
2022-10-29T07:49:32.829Z,97894.91
2022-10-29T07:51:35.375Z,97895.69
2022-10-29T07:53:37.948Z,97889.47
2022-10-29T07:55:40.600Z,97903.16
2022-10-29T07:57:43.158Z,97895.16
2022-10-29T07:59:46.931Z,97896.69
2022-10-29T08:01:49.576Z,97897.97
2022-10-29T08:03:53.600Z,97893.31
2022-10-29T08:05:57.937Z,97895.09
2022-10-29T08:08:01.002Z,97906.31
2022-10-29T08:10:03.715Z,97890.28
2022-10-29T08:12:07.009Z,97901.34
2022-10-29T08:14:10.118Z,97902.06
2022-10-29T08:16:12.717Z,97902.00
2022-10-29T08:18:16.787Z,97902.34
2022-10-29T08:20:21.243Z,97900.75
2022-10-29T08:22:23.892Z,97899.72
2022-10-29T08:24:26.509Z,97901.06
2022-10-29T08:26:29.092Z,97906.31
2022-10-29T08:28:34.795Z,97898.50
2022-10-29T08:30:38.881Z,97897.53
2022-10-29T08:32:47.318Z,97901.84
2022-10-29T08:34:49.907Z,97900.09
2022-10-29T08:36:53.888Z,97899.06
2022-10-29T08:38:56.491Z,97896.38
2022-10-29T08:41:19.598Z,97898.88
2022-10-29T08:43:49.746Z,97899.63
2022-10-29T08:45:54.720Z,97902.16
2022-10-29T08:48:16.528Z,97902.00
2022-10-29T08:50:26.150Z,97904.19
2022-10-29T08:52:33.190Z,97900.63
2022-10-29T08:54:40.786Z,97908.38
2022-10-29T08:56:48.327Z,97906.44
2022-10-29T08:59:00.549Z,97910.66
2022-10-29T09:01:03.199Z,97908.81
2022-10-29T09:03:12.428Z,97906.19
2022-10-29T09:05:16.226Z,97912.97
2022-10-29T09:07:34.767Z,97910.22
2022-10-29T09:09:41.049Z,97907.34
2022-10-29T09:12:02.371Z,97906.44
2022-10-29T09:14:28.284Z,97914.97
2022-10-29T09:16:43.473Z,97905.28
2022-10-29T09:18:58.142Z,97905.28
2022-10-29T09:21:09.167Z,97910.47
2022-10-29T09:23:27.246Z,97906.94
2022-10-29T09:25:32.517Z,97909.47
2022-10-29T09:27:46.570Z,97900.53
2022-10-29T09:30:03.438Z,97910.09
2022-10-29T09:32:11.384Z,97896.81
2022-10-29T09:34:18.983Z,97896.28
2022-10-29T09:36:24.200Z,97892.88
2022-10-29T09:38:32.471Z,97886.19
2022-10-29T09:40:37.954Z,97888.94
2022-10-29T09:42:43.019Z,97881.97
2022-10-29T09:44:51.730Z,97883.69
2022-10-29T09:47:09.895Z,97885.41
2022-10-29T09:49:30.406Z,97891.44
2022-10-29T09:51:42.190Z,97881.75
2022-10-29T09:53:46.230Z,97884.47
2022-10-29T09:55:53.555Z,97878.97
2022-10-29T09:57:58.494Z,97881.44
2022-10-29T10:00:03.177Z,97876.16
2022-10-29T10:02:28.869Z,97885.72
2022-10-29T10:04:38.265Z,97875.81
2022-10-29T10:07:03.371Z,97872.28
2022-10-29T10:09:07.303Z,97870.50
2022-10-29T10:11:20.666Z,97868.41
2022-10-29T10:13:27.458Z,97864.91
2022-10-29T10:15:33.645Z,97865.53
2022-10-29T10:17:57.733Z,97859.19
2022-10-29T10:20:03.227Z,97868.56
2022-10-29T10:22:09.287Z,97857.88
2022-10-29T10:24:30.621Z,97860.50
2022-10-29T10:26:36.436Z,97867.44
2022-10-29T10:28:39.051Z,97853.47
2022-10-29T10:30:43.072Z,97859.47
2022-10-29T10:32:45.669Z,97842.84
2022-10-29T10:34:49.703Z,97853.38
2022-10-29T10:36:56.386Z,97857.69
2022-10-29T10:39:01.143Z,97858.56
2022-10-29T10:41:08.582Z,97851.34
2022-10-29T10:43:21.693Z,97856.44
2022-10-29T10:45:26.934Z,97846.63
2022-10-29T10:47:31.913Z,97839.41
2022-10-29T10:49:36.818Z,97844.50
2022-10-29T10:51:43.697Z,97849.38
2022-10-29T10:53:46.341Z,97842.47
2022-10-29T10:55:51.621Z,97835.44
2022-10-29T10:58:03.257Z,97838.06
2022-10-29T11:00:08.258Z,97833.41
2022-10-29T11:02:21.690Z,97839.47
2022-10-29T11:04:30.714Z,97827.28
2022-10-29T11:06:37.669Z,97829.16
2022-10-29T11:08:46.677Z,97824.84
2022-10-29T11:10:53.840Z,97828.34
2022-10-29T11:13:02.634Z,97821.13
2022-10-29T11:15:13.859Z,97819.16
2022-10-29T11:17:28.071Z,97812.00
2022-10-29T11:19:36.949Z,97819.66
2022-10-29T11:21:47.650Z,97807.97
2022-10-29T11:24:02.049Z,97811.19
2022-10-29T11:26:09.811Z,97811.94
2022-10-29T11:28:24.405Z,97806.59
2022-10-29T11:30:31.106Z,97815.25
2022-10-29T11:32:46.006Z,97813.41
2022-10-29T11:34:56.139Z,97810.53
2022-10-29T11:37:03.801Z,97806.19
2022-10-29T11:39:14.797Z,97804.41
2022-10-29T11:41:26.723Z,97798.34
2022-10-29T11:43:30.822Z,97799.38
2022-10-29T11:45:46.082Z,97797.66
2022-10-29T11:48:04.868Z,97800.38
2022-10-29T11:50:20.518Z,97785.44
2022-10-29T11:52:35.546Z,97786.97
2022-10-29T11:54:53.240Z,97782.63
2022-10-29T11:56:59.939Z,97772.09
2022-10-29T11:59:09.038Z,97780.06
2022-10-29T12:01:21.210Z,97772.78
2022-10-29T12:03:43.511Z,97771.41
2022-10-29T12:05:57.006Z,97772.25
2022-10-29T12:08:15.552Z,97761.81
2022-10-29T12:10:33.985Z,97761.38
2022-10-29T12:12:45.052Z,97757.16
2022-10-29T12:14:57.887Z,97759.25
2022-10-29T12:17:07.096Z,97750.97
2022-10-29T12:19:20.410Z,97745.50
2022-10-29T12:21:33.183Z,97748.06
2022-10-29T12:23:43.620Z,97751.44
2022-10-29T12:25:56.354Z,97742.00
2022-10-29T12:28:19.066Z,97735.88
2022-10-29T12:30:25.151Z,97732.50
2022-10-29T12:32:35.108Z,97733.34
2022-10-29T12:34:46.729Z,97733.25
2022-10-29T12:36:57.510Z,97735.06
2022-10-29T12:39:02.380Z,97730.53
2022-10-29T12:41:08.430Z,97736.38
2022-10-29T12:43:17.949Z,97732.78
2022-10-29T12:45:31.357Z,97734.47
2022-10-29T12:47:40.120Z,97733.44
2022-10-29T12:49:53.615Z,97734.97
2022-10-29T12:51:59.846Z,97732.13
2022-10-29T12:54:29.590Z,97723.38
2022-10-29T12:56:33.154Z,97725.81
2022-10-29T12:58:52.761Z,97723.97
2022-10-29T13:00:56.791Z,97723.69
2022-10-29T13:02:59.747Z,97726.03
2022-10-29T13:05:39.620Z,97718.03
2022-10-29T13:08:20.141Z,97710.84
2022-10-29T13:10:51.005Z,97707.38
2022-10-29T13:13:02.350Z,97712.53
2022-10-29T13:15:15.425Z,97706.25
2022-10-29T13:17:29.689Z,97701.72
2022-10-29T13:19:45.651Z,97704.25
2022-10-29T13:21:59.535Z,97700.75
2022-10-29T13:24:06.260Z,97701.50
2022-10-29T13:26:09.970Z,97697.91
2022-10-29T13:28:51.402Z,97699.63
2022-10-29T13:31:14.616Z,97699.63
2022-10-29T13:33:52.396Z,97700.50
2022-10-29T13:35:56.813Z,97702.16
2022-10-29T13:38:13.935Z,97701.22
2022-10-29T13:41:04.208Z,97701.88
2022-10-29T13:43:13.118Z,97700.63
2022-10-29T13:45:16.091Z,97695.91
2022-10-29T13:47:22.562Z,97693.44
2022-10-29T13:49:31.363Z,97690.50
2022-10-29T13:51:41.677Z,97689.25
2022-10-29T13:53:52.308Z,97688.94
2022-10-29T13:55:55.366Z,97693.94
2022-10-29T13:58:03.774Z,97683.06
2022-10-29T14:00:09.449Z,97687.09
2022-10-29T14:02:34.358Z,97689.53
2022-10-29T14:04:42.160Z,97691.88
2022-10-29T14:06:46.251Z,97683.75
2022-10-29T14:08:56.612Z,97683.47
2022-10-29T14:11:00.170Z,97686.75
2022-10-29T14:17:18.978Z,97674.50
2022-10-29T14:19:22.774Z,97670.63
2022-10-29T14:21:28.869Z,97672.13
2022-10-29T14:23:33.098Z,97665.00
2022-10-29T14:25:37.262Z,97672.94
2022-10-29T14:27:39.947Z,97672.22
2022-10-29T14:29:42.651Z,97667.13
2022-10-29T14:31:45.546Z,97668.19
2022-10-29T14:33:54.501Z,97668.41
2022-10-29T14:36:01.943Z,97660.75
2022-10-29T14:38:11.379Z,97663.63
2022-10-29T14:40:23.058Z,97659.47
2022-10-29T14:42:31.725Z,97659.75
2022-10-29T14:44:35.437Z,97660.81
2022-10-29T14:46:39.622Z,97652.22
2022-10-29T14:48:52.561Z,97659.50
2022-10-29T14:50:56.587Z,97647.38
2022-10-29T14:53:04.739Z,97650.31
2022-10-29T14:55:15.358Z,97651.38
2022-10-29T14:57:22.912Z,97655.03
2022-10-29T14:59:29.295Z,97645.66
2022-10-29T15:01:32.395Z,97654.31
2022-10-29T15:03:36.146Z,97651.69
2022-10-29T15:05:39.104Z,97650.72
2022-10-29T15:07:41.692Z,97646.28
2022-10-29T15:09:46.033Z,97646.41
2022-10-29T15:12:00.190Z,97649.97
2022-10-29T15:14:03.607Z,97651.03
2022-10-29T15:16:09.278Z,97649.44
2022-10-29T15:18:19.626Z,97650.50
2022-10-29T15:20:24.872Z,97651.53
2022-10-29T15:22:33.145Z,97650.03
2022-10-29T15:24:36.430Z,97649.63
2022-10-29T15:26:48.399Z,97651.31
2022-10-29T15:28:54.057Z,97646.03
2022-10-29T15:30:57.541Z,97650.28
2022-10-29T15:33:01.471Z,97645.84
2022-10-29T15:35:10.831Z,97648.28
2022-10-29T15:37:24.586Z,97645.84
2022-10-29T15:39:29.357Z,97640.84
2022-10-29T15:41:37.820Z,97638.09
2022-10-29T15:43:50.809Z,97635.56
2022-10-29T15:45:58.986Z,97635.47
2022-10-29T15:48:29.576Z,97638.22
2022-10-29T15:50:46.261Z,97641.06
2022-10-29T15:52:54.079Z,97638.53
2022-10-29T15:54:56.764Z,97633.53
2022-10-29T15:56:59.405Z,97634.59
2022-10-29T15:59:01.995Z,97631.28
2022-10-29T16:01:06.312Z,97638.47
2022-10-29T16:03:14.726Z,97628.97
2022-10-29T16:05:17.654Z,97633.59
2022-10-29T16:07:20.361Z,97638.34
2022-10-29T16:09:22.952Z,97636.53
2022-10-29T16:11:26.861Z,97635.88
2022-10-29T16:13:31.338Z,97642.31
2022-10-29T16:15:33.928Z,97637.31
2022-10-29T16:17:37.865Z,97641.00
2022-10-29T16:19:40.465Z,97636.00
2022-10-29T16:21:43.070Z,97629.50
2022-10-29T16:23:47.075Z,97629.28
2022-10-29T16:25:49.638Z,97634.78
2022-10-29T16:27:52.573Z,97637.72
2022-10-29T16:29:55.154Z,97630.00
2022-10-29T16:31:58.114Z,97632.72
2022-10-29T16:34:05.206Z,97625.75
2022-10-29T16:36:09.819Z,97629.34
2022-10-29T16:38:12.574Z,97637.16
2022-10-29T16:40:15.862Z,97631.78
2022-10-29T16:42:30.670Z,97628.19
2022-10-29T16:44:33.425Z,97633.19
2022-10-29T16:46:36.054Z,97628.84
2022-10-29T16:48:38.741Z,97626.94
2022-10-29T16:50:42.618Z,97626.75
2022-10-29T16:52:45.241Z,97631.34
2022-10-29T16:54:47.912Z,97631.34
2022-10-29T16:56:52.668Z,97627.19
2022-10-29T16:59:01.868Z,97626.38
2022-10-29T17:01:05.705Z,97627.41
2022-10-29T17:03:11.791Z,97627.59
2022-10-29T17:05:15.595Z,97631.28
2022-10-29T17:07:20.164Z,97631.47
2022-10-29T17:09:25.584Z,97630.81
2022-10-29T17:11:28.299Z,97636.31
2022-10-29T17:13:30.914Z,97633.88
2022-10-29T17:15:33.676Z,97636.69
2022-10-29T17:17:36.299Z,97635.09
2022-10-29T17:19:38.879Z,97633.44
2022-10-29T17:21:41.511Z,97635.38
2022-10-29T17:23:45.505Z,97635.53
2022-10-29T17:25:52.352Z,97634.88
2022-10-29T17:27:55.285Z,97629.81
2022-10-29T17:29:58.213Z,97636.97
2022-10-29T17:32:00.842Z,97633.66
2022-10-29T17:34:03.530Z,97631.22
2022-10-29T17:36:08.675Z,97632.19
2022-10-29T17:38:12.264Z,97633.09
2022-10-29T17:40:16.267Z,97630.47
2022-10-29T17:42:18.842Z,97634.91
2022-10-29T17:44:21.429Z,97639.25
2022-10-29T17:46:24.010Z,97638.38
2022-10-29T17:48:26.623Z,97636.69
2022-10-29T17:50:29.238Z,97637.56
2022-10-29T17:52:31.790Z,97647.34
2022-10-29T17:54:35.341Z,97646.50
2022-10-29T17:56:39.420Z,97643.09
2022-10-29T17:58:42.047Z,97650.16
2022-10-29T18:00:44.731Z,97637.16
2022-10-29T18:02:50.103Z,97638.31
2022-10-29T18:04:52.690Z,97643.75
2022-10-29T18:06:56.826Z,97639.53
2022-10-29T18:09:00.782Z,97645.00
2022-10-29T18:11:04.176Z,97639.06
2022-10-29T18:13:08.095Z,97640.00
2022-10-29T18:15:11.168Z,97638.41
2022-10-29T18:17:13.788Z,97641.09
2022-10-29T18:19:17.280Z,97644.78
2022-10-29T18:21:22.376Z,97633.47
2022-10-29T18:23:25.026Z,97638.84
2022-10-29T18:25:27.663Z,97638.94
2022-10-29T18:27:30.277Z,97633.00
2022-10-29T18:29:34.146Z,97642.78
2022-10-29T18:31:37.951Z,97642.13
2022-10-29T18:33:40.601Z,97637.97
2022-10-29T18:35:43.157Z,97637.97
2022-10-29T18:37:46.848Z,97640.69
2022-10-29T18:39:49.450Z,97640.81
2022-10-29T18:41:52.062Z,97642.66
2022-10-29T18:43:55.362Z,97641.94
2022-10-29T18:46:01.019Z,97640.31
2022-10-29T18:48:03.659Z,97640.41
2022-10-29T18:50:09.312Z,97642.97
2022-10-29T18:52:11.825Z,97639.66
2022-10-29T18:54:15.224Z,97635.25
2022-10-29T18:56:19.807Z,97635.34
2022-10-29T18:58:22.728Z,97643.34
2022-10-29T19:00:25.296Z,97635.59
2022-10-29T19:02:29.281Z,97630.31
2022-10-29T19:04:32.083Z,97636.72
2022-10-29T19:06:37.196Z,97641.28
2022-10-29T19:08:41.801Z,97641.44
2022-10-29T19:10:44.427Z,97639.78
2022-10-29T19:12:46.994Z,97643.34
2022-10-29T19:14:49.563Z,97646.91
2022-10-29T19:16:52.136Z,97651.31
2022-10-29T19:18:58.035Z,97639.09
2022-10-29T19:21:04.968Z,97637.31
2022-10-29T19:23:07.691Z,97646.16
2022-10-29T19:25:10.510Z,97638.25
2022-10-29T19:27:13.148Z,97639.97
2022-10-29T19:29:16.005Z,97647.78
2022-10-29T19:31:22.257Z,97648.63
2022-10-29T19:33:24.919Z,97643.34
2022-10-29T19:35:28.840Z,97646.91
2022-10-29T19:37:31.385Z,97653.03
2022-10-29T19:39:34.012Z,97652.38
2022-10-29T19:41:36.671Z,97654.22
2022-10-29T19:43:40.256Z,97653.66
2022-10-29T19:45:42.930Z,97652.88
2022-10-29T19:47:45.485Z,97655.97
2022-10-29T19:49:48.066Z,97656.13
2022-10-29T19:51:52.110Z,97649.28
2022-10-29T19:53:54.910Z,97659.03
2022-10-29T19:55:57.728Z,97655.72
2022-10-29T19:58:00.281Z,97662.88
2022-10-29T20:00:02.845Z,97660.69
2022-10-29T20:02:05.519Z,97661.78
2022-10-29T20:04:08.163Z,97663.66
2022-10-29T20:06:10.969Z,97663.81
2022-10-29T20:08:16.284Z,97660.50
2022-10-29T20:10:19.399Z,97662.28
2022-10-29T20:12:21.996Z,97665.78
2022-10-29T20:14:28.914Z,97661.59
2022-10-29T20:16:31.815Z,97662.38
2022-10-29T20:18:35.176Z,97658.97
2022-10-29T20:20:37.768Z,97667.91
2022-10-29T20:22:40.416Z,97668.22
2022-10-29T20:24:44.412Z,97663.91
2022-10-29T20:26:46.973Z,97659.66
2022-10-29T20:28:49.575Z,97659.75
2022-10-29T20:30:52.506Z,97662.28
2022-10-29T20:32:55.449Z,97662.63
2022-10-29T20:34:58.321Z,97665.00
2022-10-29T20:37:01.006Z,97658.22
2022-10-29T20:39:03.746Z,97668.91
2022-10-29T20:41:07.710Z,97668.00
2022-10-29T20:43:10.308Z,97672.47
2022-10-29T20:45:12.865Z,97668.13
2022-10-29T20:47:15.447Z,97670.84
2022-10-29T20:49:18.012Z,97672.81
2022-10-29T20:51:22.300Z,97671.13
2022-10-29T20:53:24.961Z,97665.84
2022-10-29T20:55:27.512Z,97671.13
2022-10-29T20:57:31.445Z,97671.78
2022-10-29T20:59:34.047Z,97664.00
2022-10-29T21:01:36.740Z,97666.69
2022-10-29T21:03:39.587Z,97673.84
2022-10-29T21:05:42.420Z,97669.41
2022-10-29T21:07:45.014Z,97671.19
2022-10-29T21:09:48.529Z,97672.13
2022-10-29T21:11:51.195Z,97671.19
2022-10-29T21:13:55.156Z,97668.47
2022-10-29T21:16:05.217Z,97673.84
2022-10-29T21:18:07.772Z,97667.63
2022-10-29T21:20:11.187Z,97667.03
2022-10-29T21:22:14.871Z,97669.84
2022-10-29T21:24:20.244Z,97673.38
2022-10-29T21:26:24.291Z,97664.75
2022-10-29T21:28:26.853Z,97672.69
2022-10-29T21:30:30.842Z,97676.25
2022-10-29T21:32:33.457Z,97671.06
2022-10-29T21:34:36.058Z,97673.09
2022-10-29T21:36:38.636Z,97670.63
2022-10-29T21:38:41.452Z,97670.63
2022-10-29T21:40:44.051Z,97670.00
2022-10-29T21:42:46.634Z,97668.22
2022-10-29T21:44:49.189Z,97678.91
2022-10-29T21:46:53.074Z,97671.03
2022-10-29T21:48:55.998Z,97671.03
2022-10-29T21:51:03.057Z,97673.56
2022-10-29T21:53:06.055Z,97680.50
2022-10-29T21:55:09.320Z,97676.09
2022-10-29T21:57:11.909Z,97685.63
2022-10-29T21:59:14.471Z,97679.50
2022-10-29T22:01:17.771Z,97676.97
2022-10-29T22:03:21.784Z,97676.97
2022-10-29T22:05:24.341Z,97679.50
2022-10-29T22:07:26.886Z,97682.06
2022-10-29T22:09:30.634Z,97680.28
2022-10-29T22:11:33.248Z,97680.19
2022-10-29T22:13:36.487Z,97684.59
2022-10-29T22:15:39.169Z,97680.19
2022-10-29T22:17:42.917Z,97675.81
2022-10-29T22:19:46.895Z,97675.88
2022-10-29T22:21:49.461Z,97681.97
2022-10-29T22:23:53.787Z,97672.31
2022-10-29T22:25:56.386Z,97673.25
2022-10-29T22:27:59.172Z,97671.72
2022-10-29T22:30:02.079Z,97677.06
2022-10-29T22:32:05.617Z,97680.47
2022-10-29T22:34:08.380Z,97677.88
2022-10-29T22:36:15.247Z,97677.97
2022-10-29T22:38:18.630Z,97677.13
2022-10-29T22:40:21.216Z,97675.44
2022-10-29T22:42:23.793Z,97675.94
2022-10-29T22:44:26.412Z,97677.28
2022-10-29T22:46:31.039Z,97674.91
2022-10-29T22:48:36.098Z,97675.84
2022-10-29T22:50:38.811Z,97678.78
2022-10-29T22:52:42.955Z,97683.72
2022-10-29T22:54:45.730Z,97674.47
2022-10-29T22:56:48.290Z,97669.94
2022-10-29T22:58:50.872Z,97676.94
2022-10-29T23:01:03.075Z,97669.28
2022-10-29T23:03:05.737Z,97672.84
2022-10-29T23:05:08.654Z,97666.03
2022-10-29T23:07:11.266Z,97669.69
2022-10-29T23:09:15.232Z,97672.31
2022-10-29T23:11:20.156Z,97674.00
2022-10-29T23:13:22.804Z,97670.91
2022-10-29T23:15:25.397Z,97680.06
2022-10-29T23:17:27.994Z,97671.16
2022-10-29T23:19:30.534Z,97675.94
2022-10-29T23:21:33.696Z,97675.84
2022-10-29T23:23:37.649Z,97672.56
2022-10-29T23:25:42.439Z,97671.63
2022-10-29T23:27:45.027Z,97667.59
2022-10-29T23:29:47.618Z,97672.16
2022-10-29T23:31:50.229Z,97666.91
2022-10-29T23:33:57.222Z,97676.63
2022-10-29T23:36:02.653Z,97667.28
2022-10-29T23:38:05.251Z,97668.75
2022-10-29T23:40:09.468Z,97663.91
2022-10-29T23:42:13.365Z,97662.97
2022-10-29T23:44:15.931Z,97667.38
2022-10-29T23:46:20.940Z,97657.56
2022-10-29T23:48:26.528Z,97661.97
2022-10-29T23:50:29.487Z,97660.09
2022-10-29T23:52:32.105Z,97658.59
2022-10-29T23:54:34.840Z,97658.19
2022-10-29T23:56:37.528Z,97651.94
2022-10-29T23:58:41.426Z,97654.41
